NKS893 TJSJ-KMCO
Flight info
| Callsign | NKS893 |
|---|---|
| Flight time | 2h 48m |
| Altitude | 34000 |
| Route | ACONY3 SAPPO Y280 OCTAL MUNGI1 |
| Aircraft | A319/M-SDE3FGHIRWY/LB1 |
Departure
| Time | 2026-05-04 13:12 |
|---|---|
| Airport | Luis Munoz Marin International Airport (TJSJ) |
Arrival
| Time | 2026-05-04 16:00 |
|---|---|
| Airport | Orlando International Airport (KMCO) |
| Time | Latitude | Longitude | Altitude | Speed | Heading |
|---|---|---|---|---|---|
| 2026-05-04 12:51 | 18.43631 | -66.00232 | 17 ft | 0 kts | 343° |
| 2026-05-04 13:05 | 18.43614 | -66.00227 | 17 ft | 4 kts | 343° |
| 2026-05-04 13:05 | 18.43588 | -66.00219 | 21 ft | 4 kts | 343° |
| 2026-05-04 13:05 | 18.43563 | -66.00211 | 20 ft | 4 kts | 327° |
| 2026-05-04 13:06 | 18.43551 | -66.00191 | 17 ft | 3 kts | 262° |
| 2026-05-04 13:06 | 18.43554 | -66.00167 | 17 ft | 4 kts | 262° |
| 2026-05-04 13:06 | 18.43555 | -66.00156 | 18 ft | 0 kts | 262° |
| 2026-05-04 13:08 | 18.43555 | -66.00157 | 18 ft | 1 kts | 262° |
| 2026-05-04 13:08 | 18.43555 | -66.00161 | 17 ft | 1 kts | 264° |
| 2026-05-04 13:08 | 18.43553 | -66.00176 | 17 ft | 3 kts | 264° |
| 2026-05-04 13:08 | 18.43543 | -66.00213 | 18 ft | 8 kts | 240° |
| 2026-05-04 13:09 | 18.43480 | -66.00232 | 18 ft | 12 kts | 197° |
| 2026-05-04 13:09 | 18.43463 | -66.00328 | 17 ft | 17 kts | 274° |
| 2026-05-04 13:09 | 18.43465 | -66.00467 | 17 ft | 22 kts | 268° |
| 2026-05-04 13:09 | 18.43465 | -66.00645 | 17 ft | 27 kts | 270° |
| 2026-05-04 13:10 | 18.43465 | -66.00860 | 17 ft | 32 kts | 270° |
| 2026-05-04 13:10 | 18.43465 | -66.01112 | 17 ft | 37 kts | 270° |
| 2026-05-04 13:10 | 18.43490 | -66.01354 | 17 ft | 26 kts | 321° |
| 2026-05-04 13:10 | 18.43648 | -66.01363 | 17 ft | 24 kts | 356° |
| 2026-05-04 13:11 | 18.43824 | -66.01363 | 17 ft | 19 kts | 1° |
| 2026-05-04 13:11 | 18.43920 | -66.01378 | 17 ft | 16 kts | 38° |
| 2026-05-04 13:11 | 18.43936 | -66.01347 | 17 ft | 7 kts | 69° |
| 2026-05-04 13:11 | 18.44034 | -66.01106 | 17 ft | 66 kts | 67° |
| 2026-05-04 13:12 | 18.44291 | -66.00467 | 18 ft | 122 kts | 67° |
| 2026-05-04 13:12 | 18.44692 | -65.99481 | 58 ft | 165 kts | 65° |
| 2026-05-04 13:12 | 18.45125 | -65.98406 | 765 ft | 155 kts | 68° |
| 2026-05-04 13:12 | 18.45957 | -65.97749 | 1383 ft | 163 kts | 11° |
| 2026-05-04 13:13 | 18.47050 | -65.98065 | 1857 ft | 172 kts | 319° |
| 2026-05-04 13:13 | 18.47740 | -65.99129 | 2122 ft | 186 kts | 291° |
| 2026-05-04 13:13 | 18.48375 | -66.00418 | 2261 ft | 214 kts | 310° |
| 2026-05-04 13:13 | 18.49616 | -66.01395 | 2529 ft | 235 kts | 333° |
| 2026-05-04 13:14 | 18.51049 | -66.02397 | 2861 ft | 262 kts | 316° |
| 2026-05-04 13:14 | 18.52281 | -66.03921 | 3334 ft | 283 kts | 308° |
| 2026-05-04 13:14 | 18.53516 | -66.05572 | 4125 ft | 290 kts | 310° |
| 2026-05-04 13:14 | 18.54823 | -66.07202 | 5019 ft | 292 kts | 313° |
| 2026-05-04 13:15 | 18.56170 | -66.08818 | 5856 ft | 295 kts | 313° |
| 2026-05-04 13:15 | 18.57541 | -66.10444 | 6697 ft | 298 kts | 313° |
| 2026-05-04 13:15 | 18.58918 | -66.12079 | 7486 ft | 299 kts | 313° |
| 2026-05-04 13:15 | 18.60301 | -66.13730 | 8266 ft | 301 kts | 313° |
| 2026-05-04 13:16 | 18.61687 | -66.15395 | 9049 ft | 303 kts | 312° |
| 2026-05-04 13:16 | 18.63076 | -66.17075 | 9843 ft | 304 kts | 311° |
| 2026-05-04 13:16 | 18.64477 | -66.18776 | 10301 ft | 317 kts | 311° |
| 2026-05-04 13:16 | 18.65976 | -66.20598 | 10490 ft | 337 kts | 311° |
| 2026-05-04 13:17 | 18.67512 | -66.22465 | 10962 ft | 344 kts | 310° |
| 2026-05-04 13:17 | 18.69093 | -66.24383 | 11555 ft | 348 kts | 310° |
| 2026-05-04 13:17 | 18.70708 | -66.26341 | 12161 ft | 351 kts | 310° |
| 2026-05-04 13:17 | 18.72316 | -66.28288 | 12775 ft | 354 kts | 310° |
| 2026-05-04 13:18 | 18.73939 | -66.30255 | 13354 ft | 357 kts | 309° |
| 2026-05-04 13:18 | 18.75551 | -66.32212 | 13932 ft | 359 kts | 309° |
| 2026-05-04 13:18 | 18.76999 | -66.33971 | 14395 ft | 361 kts | 309° |
| 2026-05-04 13:18 | 18.78560 | -66.35882 | 14915 ft | 362 kts | 308° |
| 2026-05-04 13:19 | 18.80210 | -66.37889 | 15485 ft | 363 kts | 309° |
| 2026-05-04 13:19 | 18.81874 | -66.39903 | 16034 ft | 364 kts | 309° |
| 2026-05-04 13:19 | 18.83543 | -66.41923 | 16572 ft | 366 kts | 309° |
| 2026-05-04 13:19 | 18.85217 | -66.43953 | 17113 ft | 368 kts | 308° |
| 2026-05-04 13:20 | 18.86900 | -66.45994 | 17646 ft | 369 kts | 308° |
| 2026-05-04 13:20 | 18.88591 | -66.48050 | 18190 ft | 371 kts | 308° |
| 2026-05-04 13:20 | 18.90287 | -66.50118 | 18667 ft | 373 kts | 308° |
| 2026-05-04 13:20 | 18.91990 | -66.52199 | 19096 ft | 376 kts | 308° |
| 2026-05-04 13:21 | 18.93715 | -66.54303 | 19517 ft | 380 kts | 308° |
| 2026-05-04 13:21 | 18.95450 | -66.56416 | 19943 ft | 382 kts | 309° |
| 2026-05-04 13:21 | 18.97199 | -66.58547 | 20372 ft | 385 kts | 309° |
| 2026-05-04 13:21 | 18.98961 | -66.60697 | 20786 ft | 389 kts | 309° |
| 2026-05-04 13:22 | 19.00735 | -66.62864 | 21196 ft | 392 kts | 308° |
| 2026-05-04 13:22 | 19.02526 | -66.65053 | 21590 ft | 395 kts | 309° |
| 2026-05-04 13:22 | 19.04331 | -66.67259 | 21973 ft | 398 kts | 309° |
| 2026-05-04 13:22 | 19.06154 | -66.69484 | 22338 ft | 402 kts | 309° |
| 2026-05-04 13:23 | 19.07994 | -66.71728 | 22711 ft | 406 kts | 309° |
| 2026-05-04 13:23 | 19.09848 | -66.73995 | 23072 ft | 409 kts | 310° |
| 2026-05-04 13:23 | 19.11717 | -66.76282 | 23424 ft | 413 kts | 310° |
| 2026-05-04 13:23 | 19.13601 | -66.78588 | 23757 ft | 416 kts | 310° |
| 2026-05-04 13:24 | 19.15502 | -66.80914 | 24076 ft | 418 kts | 310° |
| 2026-05-04 13:24 | 19.17404 | -66.83240 | 24440 ft | 419 kts | 310° |
| 2026-05-04 13:24 | 19.19310 | -66.85572 | 24812 ft | 419 kts | 310° |
| 2026-05-04 13:25 | 19.23117 | -66.90235 | 25549 ft | 419 kts | 310° |
| 2026-05-04 13:25 | 19.25021 | -66.92572 | 25918 ft | 419 kts | 309° |
| 2026-05-04 13:25 | 19.26925 | -66.94907 | 26275 ft | 419 kts | 310° |
| 2026-05-04 13:25 | 19.28834 | -66.97249 | 26611 ft | 420 kts | 309° |
| 2026-05-04 13:26 | 19.30744 | -66.99596 | 26930 ft | 422 kts | 309° |
| 2026-05-04 13:26 | 19.32668 | -67.01957 | 27249 ft | 423 kts | 310° |
| 2026-05-04 13:26 | 19.34587 | -67.04312 | 27560 ft | 424 kts | 309° |
| 2026-05-04 13:26 | 19.36518 | -67.06681 | 27870 ft | 425 kts | 310° |
| 2026-05-04 13:27 | 19.38428 | -67.09025 | 28174 ft | 427 kts | 309° |
| 2026-05-04 13:27 | 19.40374 | -67.11417 | 28482 ft | 428 kts | 309° |
| 2026-05-04 13:27 | 19.42319 | -67.13811 | 28803 ft | 429 kts | 309° |
| 2026-05-04 13:27 | 19.44291 | -67.16239 | 29115 ft | 430 kts | 309° |
| 2026-05-04 13:28 | 19.46246 | -67.18648 | 29426 ft | 431 kts | 309° |
| 2026-05-04 13:28 | 19.48205 | -67.21063 | 29732 ft | 432 kts | 309° |
| 2026-05-04 13:28 | 19.50167 | -67.23482 | 30043 ft | 433 kts | 309° |
| 2026-05-04 13:28 | 19.52137 | -67.25908 | 30314 ft | 435 kts | 309° |
| 2026-05-04 13:29 | 19.54086 | -67.28309 | 30528 ft | 436 kts | 309° |
| 2026-05-04 13:29 | 19.56069 | -67.30754 | 30736 ft | 438 kts | 309° |
| 2026-05-04 13:29 | 19.58056 | -67.33211 | 30949 ft | 440 kts | 309° |
| 2026-05-04 13:29 | 19.60057 | -67.35685 | 31148 ft | 442 kts | 309° |
| 2026-05-04 13:30 | 19.62065 | -67.38168 | 31350 ft | 444 kts | 309° |
| 2026-05-04 13:30 | 19.64083 | -67.40663 | 31561 ft | 446 kts | 309° |
| 2026-05-04 13:30 | 19.66097 | -67.43157 | 31854 ft | 445 kts | 309° |
| 2026-05-04 13:30 | 19.68112 | -67.45653 | 32139 ft | 445 kts | 309° |
| 2026-05-04 13:31 | 19.70129 | -67.48148 | 32431 ft | 445 kts | 309° |
| 2026-05-04 13:31 | 19.72145 | -67.50638 | 32715 ft | 446 kts | 309° |
| 2026-05-04 13:31 | 19.74172 | -67.53141 | 33016 ft | 446 kts | 309° |
| 2026-05-04 13:31 | 19.76188 | -67.55639 | 33315 ft | 446 kts | 309° |
| 2026-05-04 13:32 | 19.78204 | -67.58137 | 33613 ft | 446 kts | 309° |
| 2026-05-04 13:32 | 19.80223 | -67.60641 | 33909 ft | 446 kts | 309° |
| 2026-05-04 13:32 | 19.82238 | -67.63140 | 34057 ft | 445 kts | 309° |
| 2026-05-04 13:32 | 19.84242 | -67.65622 | 34081 ft | 440 kts | 309° |
| 2026-05-04 13:33 | 19.88197 | -67.70539 | 34083 ft | 437 kts | 309° |
| 2026-05-04 13:33 | 19.92148 | -67.75453 | 34083 ft | 437 kts | 309° |
| 2026-05-04 13:34 | 19.96071 | -67.80330 | 34086 ft | 437 kts | 309° |
| 2026-05-04 13:34 | 20.00015 | -67.85239 | 34087 ft | 437 kts | 308° |
| 2026-05-04 13:35 | 20.05927 | -67.92616 | 34086 ft | 437 kts | 308° |
| 2026-05-04 13:36 | 20.09863 | -67.97533 | 34084 ft | 436 kts | 308° |
| 2026-05-04 13:36 | 20.13797 | -68.02443 | 34083 ft | 436 kts | 308° |
| 2026-05-04 13:37 | 20.17731 | -68.07353 | 34079 ft | 436 kts | 308° |
| 2026-05-04 13:37 | 20.21656 | -68.12260 | 34078 ft | 435 kts | 308° |
| 2026-05-04 13:38 | 20.25576 | -68.17172 | 34073 ft | 435 kts | 308° |
| 2026-05-04 13:38 | 20.29496 | -68.22084 | 34074 ft | 435 kts | 308° |
| 2026-05-04 13:39 | 20.33415 | -68.26996 | 34074 ft | 435 kts | 308° |
| 2026-05-04 13:39 | 20.37326 | -68.31915 | 34069 ft | 435 kts | 308° |
| 2026-05-04 13:40 | 20.41238 | -68.36827 | 34071 ft | 435 kts | 308° |
| 2026-05-04 13:40 | 20.44910 | -68.41929 | 34072 ft | 432 kts | 300° |
| 2026-05-04 13:41 | 20.48096 | -68.47357 | 34072 ft | 432 kts | 300° |
| 2026-05-04 13:41 | 20.51291 | -68.52783 | 34069 ft | 432 kts | 300° |
| 2026-05-04 13:42 | 20.56078 | -68.60924 | 34073 ft | 432 kts | 300° |
| 2026-05-04 13:42 | 20.59270 | -68.66357 | 34072 ft | 432 kts | 300° |
| 2026-05-04 13:43 | 20.62457 | -68.71786 | 34071 ft | 431 kts | 300° |
| 2026-05-04 13:43 | 20.65643 | -68.77216 | 34069 ft | 431 kts | 300° |
| 2026-05-04 13:44 | 20.68822 | -68.82643 | 34066 ft | 431 kts | 299° |
| 2026-05-04 13:44 | 20.72002 | -68.88078 | 34068 ft | 431 kts | 299° |
| 2026-05-04 13:45 | 20.75151 | -68.93482 | 34069 ft | 432 kts | 299° |
| 2026-05-04 13:45 | 20.78330 | -68.98926 | 34074 ft | 431 kts | 299° |
| 2026-05-04 13:46 | 20.81501 | -69.04368 | 34076 ft | 431 kts | 299° |
| 2026-05-04 13:46 | 20.84150 | -69.08925 | 34071 ft | 431 kts | 299° |
| 2026-05-04 13:47 | 20.87296 | -69.14328 | 34074 ft | 431 kts | 299° |
| 2026-05-04 13:47 | 20.90488 | -69.19793 | 34080 ft | 430 kts | 299° |
| 2026-05-04 13:48 | 20.93645 | -69.25225 | 34076 ft | 430 kts | 299° |
| 2026-05-04 13:48 | 20.96774 | -69.30618 | 34079 ft | 429 kts | 299° |
| 2026-05-04 13:49 | 20.99919 | -69.36038 | 34079 ft | 428 kts | 299° |
| 2026-05-04 13:49 | 21.03055 | -69.41455 | 34078 ft | 428 kts | 299° |
| 2026-05-04 13:50 | 21.06188 | -69.46866 | 34079 ft | 427 kts | 299° |
| 2026-05-04 13:50 | 21.09319 | -69.52276 | 34076 ft | 427 kts | 299° |
| 2026-05-04 13:51 | 21.12441 | -69.57676 | 34077 ft | 426 kts | 299° |
| 2026-05-04 13:51 | 21.15555 | -69.63075 | 34072 ft | 426 kts | 299° |
| 2026-05-04 13:52 | 21.20214 | -69.71162 | 34069 ft | 425 kts | 299° |
| 2026-05-04 13:53 | 21.23314 | -69.76546 | 34064 ft | 424 kts | 298° |
| 2026-05-04 13:53 | 21.26409 | -69.81926 | 34063 ft | 424 kts | 298° |
| 2026-05-04 13:54 | 21.31046 | -69.89985 | 34059 ft | 423 kts | 298° |
| 2026-05-04 13:55 | 21.35669 | -69.98039 | 34057 ft | 422 kts | 298° |
| 2026-05-04 13:55 | 21.40271 | -70.06095 | 34058 ft | 422 kts | 298° |
| 2026-05-04 13:56 | 21.43334 | -70.11455 | 34058 ft | 421 kts | 298° |
| 2026-05-04 13:57 | 21.47930 | -70.19489 | 34057 ft | 420 kts | 298° |
| 2026-05-04 13:58 | 21.54030 | -70.30190 | 34060 ft | 420 kts | 298° |
| 2026-05-04 13:58 | 21.58598 | -70.38204 | 34059 ft | 419 kts | 298° |
| 2026-05-04 13:59 | 21.61633 | -70.43546 | 34062 ft | 419 kts | 298° |
| 2026-05-04 14:00 | 21.66178 | -70.51557 | 34060 ft | 418 kts | 298° |
| 2026-05-04 14:00 | 21.70704 | -70.59523 | 34053 ft | 418 kts | 298° |
| 2026-05-04 14:01 | 21.73724 | -70.64856 | 34061 ft | 418 kts | 298° |
| 2026-05-04 14:02 | 21.78251 | -70.72859 | 34052 ft | 417 kts | 298° |
| 2026-05-04 14:02 | 21.81270 | -70.78196 | 34055 ft | 417 kts | 298° |
| 2026-05-04 14:03 | 21.84287 | -70.83531 | 34062 ft | 417 kts | 298° |
| 2026-05-04 14:03 | 21.87297 | -70.88873 | 34065 ft | 417 kts | 297° |
| 2026-05-04 14:04 | 21.91799 | -70.96887 | 34062 ft | 417 kts | 297° |
| 2026-05-04 14:04 | 21.94798 | -71.02220 | 34060 ft | 416 kts | 297° |
| 2026-05-04 14:05 | 21.99159 | -71.09967 | 34060 ft | 416 kts | 297° |
| 2026-05-04 14:06 | 22.02155 | -71.15305 | 34071 ft | 416 kts | 297° |
| 2026-05-04 14:06 | 22.05127 | -71.20609 | 34071 ft | 415 kts | 297° |
| 2026-05-04 14:07 | 22.08108 | -71.25936 | 34071 ft | 415 kts | 297° |
| 2026-05-04 14:07 | 22.11084 | -71.31264 | 34076 ft | 414 kts | 297° |
| 2026-05-04 14:08 | 22.14055 | -71.36581 | 34075 ft | 414 kts | 297° |
| 2026-05-04 14:08 | 22.17025 | -71.41893 | 34071 ft | 413 kts | 297° |
| 2026-05-04 14:09 | 22.21472 | -71.49859 | 34066 ft | 413 kts | 297° |
| 2026-05-04 14:10 | 22.25905 | -71.57833 | 34066 ft | 413 kts | 297° |
| 2026-05-04 14:10 | 22.28855 | -71.63148 | 34066 ft | 413 kts | 297° |
| 2026-05-04 14:11 | 22.31809 | -71.68459 | 34070 ft | 412 kts | 297° |
| 2026-05-04 14:11 | 22.36238 | -71.76416 | 34062 ft | 411 kts | 297° |
| 2026-05-04 14:12 | 22.39160 | -71.81680 | 34058 ft | 411 kts | 297° |
| 2026-05-04 14:13 | 22.43549 | -71.89641 | 34054 ft | 411 kts | 297° |
| 2026-05-04 14:13 | 22.46474 | -71.94941 | 34053 ft | 411 kts | 297° |
| 2026-05-04 14:14 | 22.49401 | -72.00241 | 34055 ft | 411 kts | 297° |
| 2026-05-04 14:14 | 22.53797 | -72.08196 | 34056 ft | 410 kts | 297° |
| 2026-05-04 14:15 | 22.59626 | -72.18799 | 34056 ft | 410 kts | 296° |
| 2026-05-04 14:16 | 22.63991 | -72.26737 | 34056 ft | 409 kts | 297° |
| 2026-05-04 14:17 | 22.68354 | -72.34666 | 34055 ft | 409 kts | 296° |
| 2026-05-04 14:18 | 22.72696 | -72.42613 | 34060 ft | 408 kts | 296° |
| 2026-05-04 14:19 | 22.78482 | -72.53197 | 34061 ft | 408 kts | 296° |
| 2026-05-04 14:19 | 22.81369 | -72.58492 | 34059 ft | 408 kts | 296° |
| 2026-05-04 14:20 | 22.84261 | -72.63788 | 34059 ft | 408 kts | 296° |
| 2026-05-04 14:20 | 22.87156 | -72.69083 | 34063 ft | 408 kts | 296° |
| 2026-05-04 14:21 | 22.91457 | -72.76997 | 34065 ft | 408 kts | 296° |
| 2026-05-04 14:21 | 22.94336 | -72.82299 | 34066 ft | 408 kts | 296° |
| 2026-05-04 14:22 | 22.97220 | -72.87594 | 34070 ft | 407 kts | 296° |
| 2026-05-04 14:22 | 23.00095 | -72.92889 | 34076 ft | 407 kts | 296° |
| 2026-05-04 14:23 | 23.04387 | -73.00826 | 34078 ft | 406 kts | 296° |
| 2026-05-04 14:24 | 23.07247 | -73.06112 | 34080 ft | 405 kts | 296° |
| 2026-05-04 14:24 | 23.10101 | -73.11383 | 34077 ft | 405 kts | 296° |
| 2026-05-04 14:25 | 23.12943 | -73.16651 | 34080 ft | 404 kts | 296° |
| 2026-05-04 14:25 | 23.17188 | -73.24538 | 34078 ft | 403 kts | 295° |
| 2026-05-04 14:26 | 23.20012 | -73.29791 | 34075 ft | 402 kts | 295° |
| 2026-05-04 14:26 | 23.22831 | -73.35031 | 34082 ft | 401 kts | 295° |
| 2026-05-04 14:27 | 23.25644 | -73.40260 | 34082 ft | 400 kts | 295° |
| 2026-05-04 14:27 | 23.28432 | -73.45457 | 34079 ft | 400 kts | 295° |
| 2026-05-04 14:28 | 23.31232 | -73.50677 | 34080 ft | 399 kts | 295° |
| 2026-05-04 14:28 | 23.34024 | -73.55894 | 34078 ft | 399 kts | 295° |
| 2026-05-04 14:29 | 23.39615 | -73.66352 | 34073 ft | 398 kts | 295° |
| 2026-05-04 14:30 | 23.42400 | -73.71556 | 34072 ft | 398 kts | 295° |
| 2026-05-04 14:31 | 23.46549 | -73.79331 | 34074 ft | 397 kts | 295° |
| 2026-05-04 14:32 | 23.52084 | -73.89746 | 34073 ft | 397 kts | 295° |
| 2026-05-04 14:32 | 23.54844 | -73.94947 | 34075 ft | 396 kts | 294° |
| 2026-05-04 14:33 | 23.57602 | -74.00139 | 34076 ft | 396 kts | 294° |
| 2026-05-04 14:33 | 23.60356 | -74.05327 | 34075 ft | 395 kts | 294° |
| 2026-05-04 14:34 | 23.63102 | -74.10513 | 34076 ft | 395 kts | 294° |
| 2026-05-04 14:34 | 23.65844 | -74.15699 | 34068 ft | 394 kts | 294° |
| 2026-05-04 14:35 | 23.68125 | -74.20006 | 34070 ft | 394 kts | 294° |
| 2026-05-04 14:35 | 23.70857 | -74.25176 | 34077 ft | 393 kts | 294° |
| 2026-05-04 14:36 | 23.73578 | -74.30344 | 34073 ft | 393 kts | 294° |
| 2026-05-04 14:36 | 23.76299 | -74.35502 | 34075 ft | 392 kts | 294° |
| 2026-05-04 14:37 | 23.79014 | -74.40657 | 34081 ft | 391 kts | 294° |
| 2026-05-04 14:37 | 23.81719 | -74.45801 | 34082 ft | 390 kts | 294° |
| 2026-05-04 14:38 | 23.84418 | -74.50941 | 34085 ft | 390 kts | 294° |
| 2026-05-04 14:38 | 23.87113 | -74.56071 | 34089 ft | 389 kts | 294° |
| 2026-05-04 14:39 | 23.89803 | -74.61205 | 34086 ft | 389 kts | 294° |
| 2026-05-04 14:39 | 23.92486 | -74.66334 | 34085 ft | 388 kts | 294° |
| 2026-05-04 14:40 | 23.96499 | -74.74028 | 34080 ft | 388 kts | 294° |
| 2026-05-04 14:40 | 23.99178 | -74.79152 | 34075 ft | 388 kts | 294° |
| 2026-05-04 14:41 | 24.01865 | -74.84286 | 34070 ft | 389 kts | 294° |
| 2026-05-04 14:42 | 24.07194 | -74.94525 | 34059 ft | 389 kts | 294° |
| 2026-05-04 14:42 | 24.09868 | -74.99669 | 34055 ft | 389 kts | 294° |
| 2026-05-04 14:43 | 24.12540 | -75.04812 | 34067 ft | 389 kts | 294° |
| 2026-05-04 14:43 | 24.15208 | -75.09954 | 34057 ft | 389 kts | 294° |
| 2026-05-04 14:44 | 24.17881 | -75.15102 | 34055 ft | 389 kts | 294° |
| 2026-05-04 14:44 | 24.20551 | -75.20252 | 34049 ft | 389 kts | 294° |
| 2026-05-04 14:45 | 24.23217 | -75.25411 | 34052 ft | 389 kts | 294° |
| 2026-05-04 14:45 | 24.25880 | -75.30577 | 34047 ft | 389 kts | 294° |
| 2026-05-04 14:46 | 24.28546 | -75.35741 | 34044 ft | 390 kts | 294° |
| 2026-05-04 14:46 | 24.31222 | -75.40914 | 34044 ft | 390 kts | 294° |
| 2026-05-04 14:47 | 24.33898 | -75.46097 | 34047 ft | 391 kts | 294° |
| 2026-05-04 14:47 | 24.36570 | -75.51292 | 34041 ft | 391 kts | 294° |
| 2026-05-04 14:48 | 24.39241 | -75.56497 | 34042 ft | 392 kts | 294° |
| 2026-05-04 14:48 | 24.41913 | -75.61711 | 34041 ft | 392 kts | 294° |
| 2026-05-04 14:49 | 24.44587 | -75.66935 | 34043 ft | 393 kts | 294° |
| 2026-05-04 14:49 | 24.47269 | -75.72162 | 34039 ft | 393 kts | 294° |
| 2026-05-04 14:50 | 24.49951 | -75.77399 | 34044 ft | 394 kts | 294° |
| 2026-05-04 14:50 | 24.52629 | -75.82643 | 34041 ft | 394 kts | 294° |
| 2026-05-04 14:51 | 24.55308 | -75.87895 | 34039 ft | 394 kts | 294° |
| 2026-05-04 14:51 | 24.57999 | -75.93147 | 34048 ft | 394 kts | 294° |
| 2026-05-04 14:52 | 24.60683 | -75.98403 | 34045 ft | 394 kts | 294° |
| 2026-05-04 14:52 | 24.63351 | -76.03660 | 34046 ft | 394 kts | 294° |
| 2026-05-04 14:53 | 24.66027 | -76.08919 | 34046 ft | 394 kts | 294° |
| 2026-05-04 14:53 | 24.68697 | -76.14176 | 34040 ft | 394 kts | 294° |
| 2026-05-04 14:54 | 24.71323 | -76.19354 | 34042 ft | 393 kts | 294° |
| 2026-05-04 14:54 | 24.73871 | -76.24372 | 34044 ft | 393 kts | 294° |
| 2026-05-04 14:55 | 24.76526 | -76.29626 | 34040 ft | 393 kts | 294° |
| 2026-05-04 14:55 | 24.79168 | -76.34841 | 34046 ft | 393 kts | 294° |
| 2026-05-04 14:56 | 24.81842 | -76.40124 | 34053 ft | 392 kts | 294° |
| 2026-05-04 14:56 | 24.84485 | -76.45373 | 34047 ft | 392 kts | 294° |
| 2026-05-04 14:57 | 24.87107 | -76.50588 | 34048 ft | 392 kts | 294° |
| 2026-05-04 14:57 | 24.89763 | -76.55865 | 34054 ft | 391 kts | 293° |
| 2026-05-04 14:58 | 24.92377 | -76.61069 | 34050 ft | 391 kts | 293° |
| 2026-05-04 14:58 | 24.95007 | -76.66310 | 34056 ft | 390 kts | 293° |
| 2026-05-04 14:59 | 24.97637 | -76.71547 | 34054 ft | 390 kts | 293° |
| 2026-05-04 15:00 | 25.01566 | -76.79391 | 34056 ft | 389 kts | 293° |
| 2026-05-04 15:00 | 25.04185 | -76.84617 | 34062 ft | 389 kts | 293° |
| 2026-05-04 15:01 | 25.08101 | -76.92441 | 34064 ft | 388 kts | 293° |
| 2026-05-04 15:01 | 25.10696 | -76.97657 | 34059 ft | 387 kts | 293° |
| 2026-05-04 15:02 | 25.13286 | -77.02871 | 34052 ft | 387 kts | 293° |
| 2026-05-04 15:02 | 25.15871 | -77.08073 | 34053 ft | 386 kts | 292° |
| 2026-05-04 15:03 | 25.18460 | -77.13274 | 34054 ft | 386 kts | 293° |
| 2026-05-04 15:03 | 25.21049 | -77.18475 | 34061 ft | 387 kts | 293° |
| 2026-05-04 15:04 | 25.23664 | -77.23760 | 34057 ft | 402 kts | 293° |
| 2026-05-04 15:04 | 25.26391 | -77.29292 | 34052 ft | 417 kts | 293° |
| 2026-05-04 15:05 | 25.29162 | -77.34967 | 34055 ft | 418 kts | 290° |
| 2026-05-04 15:05 | 25.31188 | -77.40940 | 34053 ft | 415 kts | 285° |
| 2026-05-04 15:06 | 25.33149 | -77.46952 | 34053 ft | 415 kts | 285° |
| 2026-05-04 15:07 | 25.36072 | -77.55961 | 34050 ft | 415 kts | 285° |
| 2026-05-04 15:07 | 25.38020 | -77.61966 | 34048 ft | 415 kts | 285° |
| 2026-05-04 15:08 | 25.39960 | -77.67969 | 34055 ft | 414 kts | 285° |
| 2026-05-04 15:08 | 25.41893 | -77.73967 | 34053 ft | 414 kts | 285° |
| 2026-05-04 15:09 | 25.43748 | -77.79989 | 34056 ft | 413 kts | 283° |
| 2026-05-04 15:09 | 25.45292 | -77.86088 | 34056 ft | 411 kts | 282° |
| 2026-05-04 15:10 | 25.47467 | -77.95226 | 34049 ft | 411 kts | 282° |
| 2026-05-04 15:11 | 25.49744 | -78.04376 | 34051 ft | 411 kts | 282° |
| 2026-05-04 15:11 | 25.51274 | -78.10476 | 34052 ft | 411 kts | 282° |
| 2026-05-04 15:12 | 25.52797 | -78.16567 | 34052 ft | 411 kts | 282° |
| 2026-05-04 15:12 | 25.54308 | -78.22662 | 34051 ft | 410 kts | 282° |
| 2026-05-04 15:13 | 25.55815 | -78.28758 | 34051 ft | 410 kts | 282° |
| 2026-05-04 15:13 | 25.57321 | -78.34853 | 34054 ft | 410 kts | 283° |
| 2026-05-04 15:14 | 25.58830 | -78.40950 | 34054 ft | 410 kts | 283° |
| 2026-05-04 15:14 | 25.60330 | -78.47041 | 34054 ft | 410 kts | 283° |
| 2026-05-04 15:15 | 25.61834 | -78.53139 | 34053 ft | 410 kts | 283° |
| 2026-05-04 15:15 | 25.63330 | -78.59231 | 34056 ft | 409 kts | 283° |
| 2026-05-04 15:16 | 25.65560 | -78.68318 | 34054 ft | 409 kts | 283° |
| 2026-05-04 15:17 | 25.67783 | -78.77443 | 34055 ft | 409 kts | 283° |
| 2026-05-04 15:17 | 25.70003 | -78.86560 | 34057 ft | 408 kts | 283° |
| 2026-05-04 15:18 | 25.71478 | -78.92636 | 34059 ft | 408 kts | 283° |
| 2026-05-04 15:19 | 25.73687 | -79.01743 | 34058 ft | 407 kts | 283° |
| 2026-05-04 15:19 | 25.75886 | -79.10844 | 34065 ft | 407 kts | 283° |
| 2026-05-04 15:20 | 25.77103 | -79.15879 | 34061 ft | 407 kts | 283° |
| 2026-05-04 15:20 | 25.78563 | -79.21939 | 34062 ft | 407 kts | 283° |
| 2026-05-04 15:21 | 25.80016 | -79.28005 | 34059 ft | 406 kts | 283° |
| 2026-05-04 15:22 | 25.82182 | -79.37094 | 34061 ft | 406 kts | 283° |
| 2026-05-04 15:22 | 25.84357 | -79.46187 | 34057 ft | 406 kts | 283° |
| 2026-05-04 15:23 | 25.85801 | -79.52245 | 34057 ft | 406 kts | 283° |
| 2026-05-04 15:23 | 25.87163 | -79.57970 | 34062 ft | 406 kts | 283° |
| 2026-05-04 15:24 | 25.89867 | -79.69355 | 34055 ft | 406 kts | 283° |
| 2026-05-04 15:25 | 25.91303 | -79.75423 | 34059 ft | 406 kts | 283° |
| 2026-05-04 15:26 | 25.94758 | -79.84003 | 34062 ft | 411 kts | 298° |
| 2026-05-04 15:26 | 25.99304 | -79.92101 | 33655 ft | 412 kts | 298° |
| 2026-05-04 15:27 | 26.00818 | -79.94813 | 33398 ft | 412 kts | 298° |
| 2026-05-04 15:27 | 26.03516 | -79.99648 | 32943 ft | 414 kts | 298° |
| 2026-05-04 15:28 | 26.06562 | -80.05091 | 32444 ft | 414 kts | 298° |
| 2026-05-04 15:28 | 26.08083 | -80.07806 | 32036 ft | 415 kts | 298° |
| 2026-05-04 15:28 | 26.11029 | -80.13083 | 31416 ft | 385 kts | 298° |
| 2026-05-04 15:29 | 26.12432 | -80.15595 | 30812 ft | 376 kts | 298° |
| 2026-05-04 15:30 | 26.19817 | -80.22800 | 29701 ft | 364 kts | 327° |
| 2026-05-04 15:30 | 26.26684 | -80.26369 | 29192 ft | 361 kts | 327° |
| 2026-05-04 15:31 | 26.31234 | -80.28735 | 28853 ft | 360 kts | 327° |
| 2026-05-04 15:31 | 26.33496 | -80.29916 | 28685 ft | 359 kts | 327° |
| 2026-05-04 15:32 | 26.40256 | -80.33440 | 28187 ft | 356 kts | 327° |
| 2026-05-04 15:32 | 26.44740 | -80.35782 | 27852 ft | 355 kts | 327° |
| 2026-05-04 15:33 | 26.49202 | -80.38118 | 27519 ft | 354 kts | 327° |
| 2026-05-04 15:34 | 26.55868 | -80.41611 | 27027 ft | 352 kts | 327° |
| 2026-05-04 15:34 | 26.58083 | -80.42771 | 26868 ft | 351 kts | 327° |
| 2026-05-04 15:34 | 26.62512 | -80.45073 | 26535 ft | 351 kts | 329° |
| 2026-05-04 15:35 | 26.67073 | -80.47067 | 26206 ft | 353 kts | 332° |
| 2026-05-04 15:35 | 26.69382 | -80.47985 | 26035 ft | 353 kts | 333° |
| 2026-05-04 15:35 | 26.71695 | -80.48895 | 25878 ft | 352 kts | 333° |
| 2026-05-04 15:36 | 26.76296 | -80.50734 | 25549 ft | 350 kts | 332° |
| 2026-05-04 15:36 | 26.78582 | -80.51668 | 25382 ft | 349 kts | 332° |
| 2026-05-04 15:36 | 26.80860 | -80.52609 | 25226 ft | 349 kts | 332° |
| 2026-05-04 15:37 | 26.83133 | -80.53549 | 25058 ft | 348 kts | 332° |
| 2026-05-04 15:37 | 26.85400 | -80.54490 | 24903 ft | 347 kts | 332° |
| 2026-05-04 15:37 | 26.87666 | -80.55434 | 24735 ft | 347 kts | 332° |
| 2026-05-04 15:37 | 26.89927 | -80.56375 | 24574 ft | 346 kts | 332° |
| 2026-05-04 15:38 | 26.92181 | -80.57313 | 24413 ft | 345 kts | 332° |
| 2026-05-04 15:38 | 26.94481 | -80.58278 | 24250 ft | 363 kts | 332° |
| 2026-05-04 15:38 | 26.96903 | -80.59296 | 24075 ft | 378 kts | 333° |
| 2026-05-04 15:38 | 26.99380 | -80.60328 | 23896 ft | 381 kts | 333° |
| 2026-05-04 15:39 | 27.01871 | -80.61356 | 23716 ft | 382 kts | 333° |
| 2026-05-04 15:39 | 27.04364 | -80.62380 | 23525 ft | 381 kts | 333° |
| 2026-05-04 15:39 | 27.09327 | -80.64428 | 23167 ft | 379 kts | 333° |
| 2026-05-04 15:40 | 27.11799 | -80.65452 | 22989 ft | 378 kts | 333° |
| 2026-05-04 15:40 | 27.14267 | -80.66484 | 22798 ft | 377 kts | 333° |
| 2026-05-04 15:40 | 27.16720 | -80.67519 | 22616 ft | 376 kts | 333° |
| 2026-05-04 15:40 | 27.19167 | -80.68553 | 22431 ft | 375 kts | 333° |
| 2026-05-04 15:41 | 27.21609 | -80.69583 | 22252 ft | 375 kts | 333° |
| 2026-05-04 15:41 | 27.24050 | -80.70608 | 22066 ft | 374 kts | 333° |
| 2026-05-04 15:41 | 27.26485 | -80.71625 | 21890 ft | 373 kts | 333° |
| 2026-05-04 15:41 | 27.28915 | -80.72644 | 21698 ft | 372 kts | 333° |
| 2026-05-04 15:42 | 27.31335 | -80.73667 | 21522 ft | 371 kts | 333° |
| 2026-05-04 15:42 | 27.33749 | -80.74687 | 21338 ft | 370 kts | 333° |
| 2026-05-04 15:42 | 27.36158 | -80.75701 | 21159 ft | 370 kts | 334° |
| 2026-05-04 15:42 | 27.38564 | -80.76711 | 20829 ft | 370 kts | 334° |
| 2026-05-04 15:43 | 27.40972 | -80.77738 | 20302 ft | 369 kts | 333° |
| 2026-05-04 15:43 | 27.43362 | -80.78769 | 19829 ft | 366 kts | 333° |
| 2026-05-04 15:43 | 27.45727 | -80.79800 | 19350 ft | 363 kts | 333° |
| 2026-05-04 15:43 | 27.48075 | -80.80825 | 18882 ft | 361 kts | 334° |
| 2026-05-04 15:44 | 27.50411 | -80.81842 | 18416 ft | 359 kts | 334° |
| 2026-05-04 15:44 | 27.52710 | -80.82842 | 17839 ft | 358 kts | 334° |
| 2026-05-04 15:44 | 27.55027 | -80.83849 | 17369 ft | 355 kts | 334° |
| 2026-05-04 15:44 | 27.57315 | -80.84862 | 16906 ft | 352 kts | 333° |
| 2026-05-04 15:45 | 27.59555 | -80.85960 | 16458 ft | 349 kts | 332° |
| 2026-05-04 15:45 | 27.61749 | -80.87113 | 15999 ft | 347 kts | 330° |
| 2026-05-04 15:45 | 27.63895 | -80.88269 | 15796 ft | 336 kts | 330° |
| 2026-05-04 15:45 | 27.65960 | -80.89383 | 15668 ft | 323 kts | 330° |
| 2026-05-04 15:46 | 27.67962 | -80.90457 | 15414 ft | 316 kts | 331° |
| 2026-05-04 15:46 | 27.69937 | -80.91510 | 15065 ft | 313 kts | 331° |
| 2026-05-04 15:46 | 27.71897 | -80.92549 | 14697 ft | 311 kts | 332° |
| 2026-05-04 15:46 | 27.73852 | -80.93577 | 14324 ft | 309 kts | 332° |
| 2026-05-04 15:47 | 27.75798 | -80.94593 | 13955 ft | 308 kts | 332° |
| 2026-05-04 15:47 | 27.77742 | -80.95603 | 13582 ft | 306 kts | 333° |
| 2026-05-04 15:47 | 27.79673 | -80.96551 | 13298 ft | 301 kts | 334° |
| 2026-05-04 15:47 | 27.81592 | -80.97479 | 12934 ft | 299 kts | 334° |
| 2026-05-04 15:48 | 27.83497 | -80.98398 | 12570 ft | 298 kts | 334° |
| 2026-05-04 15:48 | 27.85400 | -80.99315 | 12201 ft | 296 kts | 334° |
| 2026-05-04 15:48 | 27.89180 | -81.01129 | 11463 ft | 294 kts | 334° |
| 2026-05-04 15:49 | 27.91055 | -81.02027 | 11112 ft | 292 kts | 334° |
| 2026-05-04 15:49 | 27.92927 | -81.02919 | 10759 ft | 291 kts | 334° |
| 2026-05-04 15:49 | 27.94793 | -81.03809 | 10413 ft | 290 kts | 334° |
| 2026-05-04 15:49 | 27.96646 | -81.04690 | 10086 ft | 288 kts | 334° |
| 2026-05-04 15:50 | 27.98493 | -81.05566 | 9734 ft | 287 kts | 334° |
| 2026-05-04 15:50 | 28.00326 | -81.06439 | 9373 ft | 285 kts | 334° |
| 2026-05-04 15:50 | 28.02151 | -81.07317 | 9012 ft | 284 kts | 334° |
| 2026-05-04 15:50 | 28.03960 | -81.08195 | 8683 ft | 282 kts | 334° |
| 2026-05-04 15:51 | 28.05755 | -81.09073 | 8328 ft | 281 kts | 334° |
| 2026-05-04 15:51 | 28.07543 | -81.09962 | 7994 ft | 280 kts | 334° |
| 2026-05-04 15:51 | 28.09315 | -81.10863 | 7649 ft | 279 kts | 334° |
| 2026-05-04 15:51 | 28.11073 | -81.11781 | 7311 ft | 278 kts | 334° |
| 2026-05-04 15:52 | 28.12816 | -81.12718 | 6980 ft | 276 kts | 332° |
| 2026-05-04 15:52 | 28.14247 | -81.14125 | 6647 ft | 275 kts | 304° |
| 2026-05-04 15:52 | 28.14936 | -81.16127 | 6283 ft | 275 kts | 276° |
| 2026-05-04 15:52 | 28.14878 | -81.18295 | 5905 ft | 276 kts | 264° |
| 2026-05-04 15:53 | 28.14662 | -81.20427 | 5557 ft | 276 kts | 263° |
| 2026-05-04 15:53 | 28.14423 | -81.22615 | 5198 ft | 276 kts | 263° |
| 2026-05-04 15:53 | 28.14183 | -81.24768 | 4843 ft | 276 kts | 263° |
| 2026-05-04 15:53 | 28.13943 | -81.26891 | 4501 ft | 276 kts | 263° |
| 2026-05-04 15:54 | 28.13708 | -81.29047 | 4166 ft | 276 kts | 266° |
| 2026-05-04 15:54 | 28.14000 | -81.31163 | 3816 ft | 272 kts | 296° |
| 2026-05-04 15:54 | 28.15131 | -81.32847 | 3483 ft | 264 kts | 326° |
| 2026-05-04 15:54 | 28.16776 | -81.33646 | 3228 ft | 255 kts | 354° |
| 2026-05-04 15:55 | 28.18512 | -81.33707 | 2864 ft | 253 kts | 5° |
| 2026-05-04 15:55 | 28.20205 | -81.33262 | 2629 ft | 249 kts | 20° |
| 2026-05-04 15:55 | 28.21892 | -81.32771 | 2455 ft | 252 kts | 7° |
| 2026-05-04 15:55 | 28.23634 | -81.32650 | 2204 ft | 250 kts | 8° |
| 2026-05-04 15:56 | 28.25358 | -81.32510 | 2050 ft | 244 kts | 4° |
| 2026-05-04 15:56 | 28.26998 | -81.32501 | 2011 ft | 226 kts | 2° |
| 2026-05-04 15:56 | 28.28502 | -81.32522 | 2021 ft | 207 kts | 1° |
| 2026-05-04 15:56 | 28.29897 | -81.32539 | 2054 ft | 188 kts | 3° |
| 2026-05-04 15:57 | 28.31120 | -81.32553 | 2000 ft | 168 kts | 3° |
| 2026-05-04 15:57 | 28.32222 | -81.32565 | 1876 ft | 153 kts | 3° |
| 2026-05-04 15:57 | 28.33270 | -81.32575 | 1708 ft | 148 kts | 3° |
| 2026-05-04 15:57 | 28.34252 | -81.32586 | 1525 ft | 135 kts | 4° |
| 2026-05-04 15:58 | 28.35175 | -81.32596 | 1347 ft | 129 kts | 3° |
| 2026-05-04 15:58 | 28.36062 | -81.32604 | 1187 ft | 127 kts | 4° |
| 2026-05-04 15:58 | 28.36944 | -81.32613 | 1020 ft | 126 kts | 5° |
| 2026-05-04 15:58 | 28.37815 | -81.32622 | 854 ft | 125 kts | 4° |
| 2026-05-04 15:59 | 28.38696 | -81.32641 | 632 ft | 129 kts | 6° |
| 2026-05-04 15:59 | 28.39586 | -81.32675 | 502 ft | 124 kts | 6° |
| 2026-05-04 15:59 | 28.40457 | -81.32672 | 337 ft | 125 kts | 5° |
| 2026-05-04 15:59 | 28.41326 | -81.32672 | 196 ft | 125 kts | 5° |
| 2026-05-04 16:00 | 28.42169 | -81.32682 | 100 ft | 109 kts | 0° |
| 2026-05-04 16:00 | 28.42786 | -81.32677 | 101 ft | 65 kts | 359° |
| 2026-05-04 16:00 | 28.43123 | -81.32681 | 100 ft | 43 kts | 0° |
| 2026-05-04 16:00 | 28.43438 | -81.32682 | 100 ft | 45 kts | 359° |
| 2026-05-04 16:01 | 28.43668 | -81.32651 | 101 ft | 29 kts | 28° |
| 2026-05-04 16:01 | 28.43773 | -81.32491 | 99 ft | 16 kts | 58° |
| 2026-05-04 16:01 | 28.43836 | -81.32379 | 99 ft | 18 kts | 58° |
| 2026-05-04 16:01 | 28.43900 | -81.32255 | 100 ft | 19 kts | 59° |
| 2026-05-04 16:02 | 28.43971 | -81.32119 | 98 ft | 19 kts | 59° |
| 2026-05-04 16:02 | 28.43989 | -81.32053 | 100 ft | 10 kts | 93° |
| 2026-05-04 16:02 | 28.43931 | -81.31881 | 99 ft | 12 kts | 117° |
| 2026-05-04 16:03 | 28.43922 | -81.31783 | 101 ft | 12 kts | 90° |
| 2026-05-04 16:03 | 28.43915 | -81.31701 | 106 ft | 9 kts | 121° |
| 2026-05-04 16:03 | 28.43844 | -81.31687 | 106 ft | 10 kts | 176° |
| 2026-05-04 16:03 | 28.43771 | -81.31647 | 104 ft | 14 kts | 147° |
| 2026-05-04 16:04 | 28.43680 | -81.31613 | 97 ft | 17 kts | 202° |
| 2026-05-04 16:04 | 28.43423 | -81.31684 | 96 ft | 20 kts | 193° |
| 2026-05-04 16:04 | 28.43377 | -81.31658 | 95 ft | 5 kts | 83° |
| 2026-05-04 16:05 | 28.43378 | -81.31616 | 94 ft | 0 kts | 90° |